Time;durP1;ratioP1;P1;durP2;ratioP2;P2;SDS_P1;SDS_P2;PMS_P1;PMS_P2;Temp;Humidity;BMP_temperature;BMP_pressure;BME280_temperature;BME280_humidity;BME280_pressure;Samples;Min_cycle;Max_cycle;Signal;HPM_P1;HPM_P2
2022/09/15 00:01:02;;;;;;;8.18;4.72;;;;;;;21.03;67.74;98500.81;7607499;32;40123;-75
2022/09/15 00:05:18;;;;;;;8.27;4.43;;;;;;;21.11;67.43;98530.22;7607266;32;39849;-76
2022/09/15 00:09:34;;;;;;;6.78;3.90;;;;;;;21.25;66.76;98544.31;7607178;32;37899;-76
2022/09/15 00:13:51;;;;;;;7.32;4.45;;;;;;;21.24;66.80;98564.06;7607010;32;36859;-77
2022/09/15 00:18:07;;;;;;;8.30;4.80;;;;;;;21.13;67.33;98569.47;7594002;32;39340;-77
2022/09/15 00:22:24;;;;;;;8.10;5.82;;;;;;;20.91;68.30;98596.81;7607172;32;40802;-76
2022/09/15 00:26:40;;;;;;;10.07;5.03;;;;;;;20.78;68.77;98609.22;7606491;32;38183;-76
2022/09/15 00:30:56;;;;;;;10.15;5.25;;;;;;;20.74;68.88;98619.47;7606989;32;37287;-77
2022/09/15 00:35:12;;;;;;;10.05;5.53;;;;;;;20.76;68.71;98628.19;7606991;32;39353;-77
2022/09/15 00:39:28;;;;;;;8.10;5.37;;;;;;;20.77;68.40;98643.66;7607084;32;40907;-76
2022/09/15 00:43:44;;;;;;;9.63;6.10;;;;;;;20.72;68.51;98646.72;7593208;32;37912;-77
2022/09/15 00:48:00;;;;;;;8.55;5.32;;;;;;;20.76;68.22;98653.13;7606355;32;36993;-77
2022/09/15 00:52:20;;;;;;;8.90;6.00;;;;;;;;;;7593497;32;40063;-76
2022/09/15 00:56:37;;;;;;;9.35;5.50;;;;;;;20.51;68.55;98658.97;7606809;32;40061;-77
2022/09/15 01:00:59;;;;;;;8.85;5.55;;;;;;;20.57;68.30;98653.91;7593467;32;38700;-78
2022/09/15 01:05:19;;;;;;;8.63;5.93;;;;;;;20.38;68.91;98660.28;7606438;32;37183;-77
2022/09/15 01:09:40;;;;;;;12.02;5.78;;;;;;;20.26;69.81;98666.75;7593501;32;39316;-77
2022/09/15 01:13:56;;;;;;;9.77;6.43;;;;;;;20.42;69.72;98669.44;7593175;32;40169;-78
2022/09/15 01:18:26;;;;;;;11.30;5.82;;;;;;;20.43;70.05;98665.53;7606478;32;38091;-76
2022/09/15 01:22:47;;;;;;;10.55;5.87;;;;;;;20.65;69.37;98665.97;7593404;32;37073;-77
2022/09/15 01:27:30;;;;;;;12.27;6.40;;;;;;;20.63;69.66;98675.44;7606051;32;40127;-76
2022/09/15 01:36:46;;;;;;;8.15;5.30;;;;;;;20.84;69.50;98662.38;7595372;32;38010;-77
2022/09/15 01:41:10;;;;;;;10.55;5.87;;;;;;;20.76;69.77;98673.28;7593433;32;37876;-76
2022/09/15 01:45:31;;;;;;;13.93;6.43;;;;;;;20.95;69.13;98653.06;7605930;32;39197;-76
2022/09/15 01:49:55;;;;;;;11.50;5.90;;;;;;;21.06;68.84;98657.97;7593234;32;39961;-78
2022/09/15 01:54:13;;;;;;;10.50;5.75;;;;;;;20.90;70.06;98656.12;7605454;32;38687;-77
2022/09/15 01:58:29;;;;;;;8.13;5.80;;;;;;;20.53;71.83;98664.94;7606078;32;38121;-76
2022/09/15 02:02:59;;;;;;;9.15;5.90;;;;;;;20.59;72.33;98669.00;7606098;32;40107;-77
2022/09/15 02:07:19;;;;;;;18.15;6.95;;;;;;;20.79;71.60;98663.47;7592407;32;40779;-78
2022/09/15 02:11:39;;;;;;;10.82;6.40;;;;;;;20.59;72.43;98674.56;7592639;32;37754;-76
2022/09/15 02:15:58;;;;;;;9.98;6.10;;;;;;;20.79;71.52;98649.63;7604957;32;37297;-76
2022/09/15 02:20:24;;;;;;;9.30;6.15;;;;;;;20.84;70.99;98660.41;7592997;32;38531;-76
2022/09/15 02:24:45;;;;;;;8.88;6.00;;;;;;;20.92;70.06;98653.81;7592616;32;39877;-77
2022/09/15 02:29:07;;;;;;;14.45;5.97;;;;;;;20.82;70.19;98633.06;7592756;32;38302;-77
2022/09/15 02:33:25;;;;;;;7.70;5.35;;;;;;;20.95;70.39;98636.44;7592689;32;37348;-76
2022/09/15 02:37:41;;;;;;;10.57;6.00;;;;;;;21.13;69.83;98630.41;7591684;32;39329;-78
2022/09/15 02:41:58;;;;;;;11.07;6.40;;;;;;;20.87;70.70;98643.03;7605278;32;40806;-76
2022/09/15 02:46:20;;;;;;;9.13;5.97;;;;;;;20.79;70.48;98655.16;7591975;32;38199;-77
2022/09/15 02:50:37;;;;;;;9.85;4.80;;;;;;;20.74;70.99;98655.47;7605209;32;36328;-76
2022/09/15 02:54:53;;;;;;;8.45;5.07;;;;;;;20.99;69.79;98631.78;7604478;32;40090;-76
2022/09/15 02:59:09;;;;;;;9.63;6.15;;;;;;;21.16;68.67;98636.03;7605227;32;39999;-77
2022/09/15 03:03:25;;;;;;;10.07;6.05;;;;;;;21.06;68.54;98646.91;7604875;32;37692;-77
2022/09/15 03:07:41;;;;;;;10.30;6.60;;;;;;;20.98;68.57;98652.31;7604558;32;36894;-77
2022/09/15 03:11:57;;;;;;;11.75;5.85;;;;;;;20.92;68.97;98637.19;7604588;32;39254;-77
2022/09/15 03:16:16;;;;;;;11.27;5.97;;;;;;;20.94;68.72;98634.84;7604453;32;39799;-76
2022/09/15 03:20:32;;;;;;;9.90;6.60;;;;;;;21.00;68.54;98633.34;7604598;32;36924;-76
2022/09/15 03:24:48;;;;;;;8.85;6.30;;;;;;;21.01;68.77;98639.72;7603912;32;37372;-76
2022/09/15 03:29:04;;;;;;;13.25;6.87;;;;;;;20.97;69.57;98633.31;7605654;32;40134;-77
2022/09/15 03:33:21;;;;;;;11.00;6.50;;;;;;;21.09;69.46;98641.41;7608043;32;40110;-76
2022/09/15 03:37:37;;;;;;;12.02;6.15;;;;;;;21.03;69.60;98644.91;7606733;32;38701;-78
2022/09/15 03:41:53;;;;;;;13.20;6.00;;;;;;;20.72;70.67;98635.66;7607722;32;37115;-76
2022/09/15 03:46:10;;;;;;;7.65;5.30;;;;;;;20.87;70.21;98625.59;7607558;32;39417;-77
2022/09/15 03:50:26;;;;;;;7.57;5.80;;;;;;;20.99;69.36;98626.22;7607580;32;40018;-77
2022/09/15 03:54:42;;;;;;;9.77;4.72;;;;;;;20.84;69.98;98640.22;7606833;32;39062;-77
2022/09/15 03:59:00;;;;;;;8.77;4.70;;;;;;;20.90;69.44;98645.06;7607480;32;37034;-77
2022/09/15 04:03:16;;;;;;;7.72;4.07;;;;;;;20.84;69.43;98631.91;7607435;32;39374;-77
2022/09/15 04:07:32;;;;;;;9.25;4.30;;;;;;;20.75;69.66;98632.94;7606964;32;39935;-76
2022/09/15 04:11:48;;;;;;;6.03;3.70;;;;;;;20.98;68.97;98646.78;7607197;32;37890;-77
2022/09/15 04:16:07;;;;;;;7.40;4.05;;;;;;;20.94;69.04;98656.22;7606862;32;37062;-77
2022/09/15 04:20:23;;;;;;;6.50;3.37;;;;;;;20.84;69.06;98656.84;7581910;32;40068;-77
2022/09/15 04:24:39;;;;;;;6.53;3.78;;;;;;;21.03;68.58;98647.66;7606555;32;39890;-77
2022/09/15 04:28:55;;;;;;;7.65;3.50;;;;;;;20.93;68.81;98655.41;7607108;32;38544;-77
2022/09/15 04:33:15;;;;;;;5.78;3.10;;;;;;;20.96;68.67;98657.44;7607151;32;37005;-76
2022/09/15 04:37:32;;;;;;;9.48;3.40;;;;;;;20.96;68.34;98670.50;7606763;32;40184;-77
2022/09/15 04:41:48;;;;;;;9.93;3.20;;;;;;;20.98;68.34;98668.94;7606270;32;40067;-77
2022/09/15 04:46:04;;;;;;;4.50;2.80;;;;;;;21.13;67.65;98664.47;7606724;32;37838;-78
2022/09/15 04:50:20;;;;;;;6.15;3.40;;;;;;;21.11;67.39;98660.44;7606935;32;37467;-77
2022/09/15 04:54:36;;;;;;;6.87;2.78;;;;;;;21.27;66.44;98658.34;7606442;32;39340;-77
2022/09/15 04:58:54;;;;;;;4.43;2.60;;;;;;;21.12;66.58;98659.28;7606765;32;40757;-78
2022/09/15 05:03:17;;;;;;;5.18;2.30;;;;;;;21.13;66.91;98672.00;7606730;32;37853;-77
2022/09/15 05:07:33;;;;;;;2.95;2.45;;;;;;;21.07;67.13;98671.47;7606059;32;37063;-78
2022/09/15 05:11:49;;;;;;;6.07;2.37;;;;;;;21.05;67.03;98667.47;7606285;32;40082;-78
2022/09/15 05:16:10;;;;;;;6.03;2.50;;;;;;;21.02;66.99;98674.56;7606367;32;40760;-77
2022/09/15 05:20:27;;;;;;;7.70;2.67;;;;;;;21.12;66.61;98684.22;7606574;32;37674;-79
2022/09/15 05:24:42;;;;;;;6.43;2.58;;;;;;;21.15;66.18;98683.50;7606044;32;37697;-77
2022/09/15 05:28:59;;;;;;;4.12;2.35;;;;;;;21.31;65.45;98664.75;7606279;32;39948;-78
2022/09/15 05:33:15;;;;;;;4.90;2.42;;;;;;;21.28;66.00;98678.56;7606156;32;40255;-78
2022/09/15 05:37:32;;;;;;;2.92;2.50;;;;;;;21.49;65.34;98697.53;7605893;32;38065;-78
2022/09/15 05:41:48;;;;;;;9.38;2.80;;;;;;;21.32;66.49;98705.16;7592890;32;37816;-78
2022/09/15 05:46:06;;;;;;;5.12;2.45;;;;;;;21.22;67.64;98711.31;7606038;32;39407;-75
2022/09/15 05:50:22;;;;;;;7.37;2.45;;;;;;;21.48;67.23;98713.37;7605669;32;38884;-77
2022/09/15 05:54:38;;;;;;;3.12;2.25;;;;;;;21.48;67.33;98718.91;7605641;32;37895;-78
2022/09/15 05:58:54;;;;;;;6.37;2.67;;;;;;;21.54;67.41;98722.16;7606219;32;37155;-77
2022/09/15 06:03:13;;;;;;;5.37;2.28;;;;;;;21.80;66.87;98723.38;7607247;32;39284;-76
2022/09/15 06:07:30;;;;;;;5.47;2.47;;;;;;;21.67;67.83;98729.13;7598991;32;40898;-77
2022/09/15 06:11:46;;;;;;;6.57;2.45;;;;;;;21.77;67.76;98713.84;7626997;32;38666;-76
2022/09/15 06:16:05;;;;;;;4.03;1.90;;;;;;;21.78;66.95;98703.53;7622268;32;38430;-77
2022/09/15 06:20:21;;;;;;;5.30;2.35;;;;;;;21.73;67.13;98727.66;7605882;32;39321;-77
2022/09/15 06:24:37;;;;;;;4.28;2.00;;;;;;;21.81;67.17;98736.88;7605227;32;40715;-77
2022/09/15 06:28:58;;;;;;;5.10;2.10;;;;;;;22.01;66.89;98729.25;7605192;32;38198;-76
2022/09/15 06:33:14;;;;;;;4.32;1.83;;;;;;;22.18;66.27;98716.81;7604935;32;37148;-76
2022/09/15 06:37:31;;;;;;;6.18;2.15;;;;;;;22.35;66.15;98729.31;7605132;32;39131;-79
2022/09/15 06:41:47;;;;;;;6.20;2.30;;;;;;;22.34;66.26;98736.06;7605488;32;40799;-81
2022/09/15 06:46:24;;;;;;;7.03;2.22;;;;;;;22.84;63.74;98728.34;7605232;32;39616;-79
2022/09/15 06:50:40;;;;;;;5.72;2.28;;;;;;;23.01;63.21;98726.94;7605280;32;37893;-79
2022/09/15 06:54:56;;;;;;;4.85;2.40;;;;;;;23.14;63.39;98727.47;7604945;32;39326;-82
2022/09/15 06:59:14;;;;;;;4.87;2.42;;;;;;;23.04;63.73;98745.63;7605277;32;39975;-81
2022/09/15 07:03:30;;;;;;;5.68;2.10;;;;;;;22.98;63.84;98760.25;7604697;32;37830;-79
2022/09/15 07:07:46;;;;;;;5.80;2.25;;;;;;;23.15;62.36;98768.00;7605435;32;37041;-80
2022/09/15 07:12:03;;;;;;;6.55;2.47;;;;;;;23.20;62.61;98783.56;7604672;32;39326;-77
2022/09/15 07:16:20;;;;;;;9.50;2.70;;;;;;;23.38;62.20;98775.38;7604687;32;39899;-79
2022/09/15 07:20:38;;;;;;;9.48;2.45;;;;;;;23.24;63.80;98785.16;7604702;32;39119;-78
2022/09/15 07:24:54;;;;;;;7.97;2.65;;;;;;;22.49;64.65;98793.41;7604148;32;37842;-78
2022/09/15 07:29:10;;;;;;;6.47;2.05;;;;;;;23.16;64.50;98791.84;7604520;32;39356;-78
2022/09/15 07:33:26;;;;;;;4.20;2.30;;;;;;;23.27;61.53;98799.47;7604249;32;40844;-77
2022/09/15 07:37:43;;;;;;;7.20;2.15;;;;;;;23.61;60.77;98787.13;7603827;32;37903;-76
2022/09/15 07:41:59;;;;;;;4.72;2.05;;;;;;;23.57;61.71;98791.84;7603842;32;38866;-76
2022/09/15 07:46:16;;;;;;;4.93;2.00;;;;;;;23.77;59.23;98792.41;7590015;32;40096;-80
2022/09/15 07:50:32;;;;;;;4.57;2.15;;;;;;;23.60;60.06;98802.19;7603143;32;40363;-76
2022/09/15 07:54:48;;;;;;;4.75;1.87;;;;;;;23.56;59.75;98798.59;7602623;32;37986;-77
2022/09/15 07:59:03;;;;;;;3.85;2.10;;;;;;;23.39;59.36;98799.22;7620078;32;37575;-79
2022/09/15 08:03:19;;;;;;;5.85;2.00;;;;;;;23.84;60.21;98785.34;7611836;32;40295;-77
2022/09/15 08:07:35;;;;;;;8.02;2.40;;;;;;;23.75;59.32;98811.47;7603519;32;40051;-77
2022/09/15 08:11:51;;;;;;;5.00;1.80;;;;;;;24.15;56.72;98795.91;7589971;32;38012;-77
2022/09/15 08:16:09;;;;;;;3.92;1.87;;;;;;;24.31;55.81;98803.97;7600163;32;37881;-77
2022/09/15 08:20:25;;;;;;;6.22;2.10;;;;;;;24.34;55.25;98805.97;7599592;32;38758;-77
2022/09/15 08:24:42;;;;;;;6.78;1.98;;;;;;;24.64;57.48;98798.59;7603806;32;39982;-76
2022/09/15 08:28:58;;;;;;;3.47;1.62;;;;;;;24.87;56.03;98795.50;7605342;32;38095;-79
2022/09/15 08:33:14;;;;;;;5.45;2.10;;;;;;;23.99;55.69;98782.28;7606225;32;37012;-78
2022/09/15 08:37:30;;;;;;;5.37;2.22;;;;;;;24.37;54.50;98782.91;7605708;32;39856;-79
2022/09/15 08:41:48;;;;;;;5.25;1.62;;;;;;;24.90;53.66;98786.38;7606539;32;39900;-76
2022/09/15 08:46:09;;;;;;;2.00;1.45;;;;;;;25.35;53.08;98775.75;7590725;32;36869;-77
2022/09/15 08:50:39;;;;;;;2.92;1.52;;;;;;;25.37;52.61;98772.56;7584065;32;37911;-78
2022/09/15 08:55:00;;;;;;;3.85;1.60;;;;;;;25.44;50.71;98762.22;7605306;32;39319;-77
2022/09/15 08:59:17;;;;;;;3.62;1.35;;;;;;;25.36;50.95;98777.34;7592166;32;40839;-78
2022/09/15 09:03:59;;;;;;;4.70;1.40;;;;;;;24.97;50.72;98775.22;7592851;32;38779;-78
2022/09/15 09:08:49;;;;;;;3.60;1.30;;;;;;;25.24;49.31;98758.97;7603787;32;37233;-80
2022/09/15 09:13:23;;;;;;;5.20;1.58;;;;;;;24.64;50.20;98765.97;7605121;32;40105;-79
2022/09/15 09:18:11;;;;;;;3.50;1.37;;;;;;;24.94;49.68;98762.09;7604627;32;40305;-78
2022/09/15 09:22:32;;;;;;;1.60;1.20;;;;;;;24.97;50.30;98755.72;7592417;32;38695;-77
2022/09/15 09:26:50;;;;;;;6.60;1.10;;;;;;;25.61;49.08;98743.09;7592327;32;37544;-76
2022/09/15 09:31:14;;;;;;;2.08;1.00;;;;;;;26.11;47.33;98720.72;7606322;32;39298;-75
2022/09/15 09:35:42;;;;;;;1.45;1.08;;;;;;;26.47;46.13;98706.63;7593268;32;39885;-76
2022/09/15 09:39:57;;;;;;;3.58;1.20;;;;;;;26.65;45.47;98711.38;7568992;32;37990;-75
2022/09/15 09:44:14;;;;;;;4.75;1.35;;;;;;;26.42;45.79;98718.22;7605861;32;37142;-80
2022/09/15 09:48:30;;;;;;;1.62;0.80;;;;;;;26.83;43.99;98705.69;7592854;32;39371;-76
2022/09/15 09:52:46;;;;;;;1.58;1.12;;;;;;;27.32;43.51;98704.59;7606028;32;39918;-77
2022/09/15 09:57:21;;;;;;;0.77;0.70;;;;;;;27.52;41.91;98698.44;7605870;32;38666;-76
2022/09/15 10:01:37;;;;;;;2.78;0.80;;;;;;;27.77;41.50;98675.00;7605845;32;37845;-76
2022/09/15 10:06:02;;;;;;;1.00;0.80;;;;;;;27.84;40.22;98680.56;7605644;32;39322;-75
2022/09/15 10:10:24;;;;;;;1.25;1.00;;;;;;;28.22;38.72;98660.97;7600438;32;39100;-77
2022/09/15 10:14:41;;;;;;;0.67;0.67;;;;;;;28.65;39.40;98654.81;7601263;32;38621;-78
2022/09/15 10:18:58;;;;;;;3.08;1.00;;;;;;;28.78;38.26;98644.59;7612039;32;37092;-77
2022/09/15 10:23:17;;;;;;;2.05;1.00;;;;;;;28.96;36.78;98624.72;7604680;32;39298;-77
2022/09/15 10:27:35;;;;;;;3.58;0.90;;;;;;;29.02;36.67;98611.00;7603623;32;40486;-78
2022/09/15 10:31:50;;;;;;;3.30;1.05;;;;;;;28.30;37.00;98620.41;7614799;32;37022;-78
2022/09/15 10:36:17;;;;;;;2.33;1.02;;;;;;;28.46;37.45;98626.22;7611531;32;37026;-77
2022/09/15 10:40:36;;;;;;;1.23;0.90;;;;;;;28.46;37.78;98623.41;7603472;32;40057;-79
2022/09/15 10:45:06;;;;;;;1.55;1.10;;;;;;;29.01;36.50;98621.44;7626428;32;39933;-79
2022/09/15 10:49:44;;;;;;;2.37;1.12;;;;;;;28.35;37.69;98630.38;7608901;32;38602;-80
2022/09/15 10:54:07;;;;;;;3.33;1.20;;;;;;;28.21;37.12;98625.75;7627243;32;37763;-78
2022/09/15 10:58:28;;;;;;;3.12;1.05;;;;;;;27.90;38.34;98626.47;7605967;32;40079;-80
2022/09/15 11:02:56;;;;;;;3.42;0.95;;;;;;;27.93;38.69;98638.09;7631292;32;40063;-78
2022/09/15 11:07:22;;;;;;;1.83;0.85;;;;;;;28.43;38.91;98627.03;7618445;32;39017;-81
2022/09/15 11:11:47;;;;;;;2.95;1.33;;;;;;;28.30;40.34;98631.63;7606656;32;37107;-81
2022/09/15 11:16:28;;;;;;;2.85;1.20;;;;;;;27.88;39.52;98630.91;7604417;32;39426;-81
2022/09/15 11:21:09;;;;;;;4.72;1.30;;;;;;;28.53;37.42;98625.31;7595703;32;39748;-81
2022/09/15 11:25:39;;;;;;;3.40;1.20;;;;;;;27.91;37.93;98636.50;7589227;32;38121;-76
2022/09/15 11:30:14;;;;;;;1.98;1.30;;;;;;;27.73;39.61;98616.25;7576997;32;37003;-77
2022/09/15 11:34:46;;;;;;;1.50;1.10;;;;;;;27.54;40.06;98632.47;7565131;33;39307;-77
2022/09/15 11:39:18;;;;;;;1.37;1.00;;;;;;;27.38;40.23;98642.59;7566560;33;40772;-78
2022/09/15 11:44:01;;;;;;;1.90;1.02;;;;;;;27.42;40.79;98620.97;7578124;33;38770;-77
2022/09/15 11:48:32;;;;;;;4.25;1.20;;;;;;;27.43;41.43;98605.78;7582980;32;36842;-77
2022/09/15 11:53:01;;;;;;;3.10;0.80;;;;;;;27.73;40.14;98591.87;7599412;32;39445;-77
2022/09/15 11:57:27;;;;;;;2.25;0.90;;;;;;;27.50;39.06;98575.72;7607093;32;39966;-77
2022/09/15 12:02:12;;;;;;;1.27;0.93;;;;;;;27.35;40.67;98583.47;7594825;32;38527;-77
2022/09/15 12:06:46;;;;;;;3.50;1.10;;;;;;;27.29;40.24;98578.75;7589630;32;36985;-77
2022/09/15 12:11:06;;;;;;;2.10;1.02;;;;;;;27.41;39.40;98572.62;7606713;32;39290;-77
2022/09/15 12:15:26;;;;;;;4.35;1.30;;;;;;;27.34;39.80;98584.66;7594466;32;40153;-77
2022/09/15 12:19:54;;;;;;;1.42;1.10;;;;;;;27.39;40.16;98588.22;7581199;32;38009;-78
2022/09/15 12:24:22;;;;;;;1.70;1.00;;;;;;;27.29;40.08;98585.13;7607197;32;37041;-77
2022/09/15 12:29:01;;;;;;;3.50;1.33;;;;;;;26.91;40.69;98571.03;7606705;32;40037;-77
2022/09/15 12:33:53;;;;;;;1.98;1.15;;;;;;;27.07;40.53;98562.09;7593577;32;39929;-77
2022/09/15 12:38:13;;;;;;;1.85;1.00;;;;;;;27.37;40.14;98568.25;7607074;32;37886;-76
2022/09/15 12:42:30;;;;;;;2.50;1.00;;;;;;;27.13;40.39;98582.03;7593051;32;36859;-77
2022/09/15 12:46:54;;;;;;;3.85;1.30;;;;;;;27.12;40.29;98580.47;7593359;32;39323;-77
2022/09/15 12:51:10;;;;;;;3.65;1.05;;;;;;;26.70;41.16;98585.97;7593207;32;39910;-78
2022/09/15 12:55:33;;;;;;;3.90;1.20;;;;;;;26.90;41.08;98594.59;7606214;32;38145;-77
2022/09/15 13:00:09;;;;;;;1.50;0.80;;;;;;;26.71;41.89;98595.16;7593793;32;37027;-77
2022/09/15 13:04:52;;;;;;;3.00;1.10;;;;;;;26.36;40.83;98580.19;7606054;32;39363;-77
2022/09/15 13:09:25;;;;;;;3.95;1.00;;;;;;;26.58;40.86;98573.25;7599552;32;40627;-77
2022/09/15 13:14:03;;;;;;;2.28;1.00;;;;;;;26.71;40.07;98570.00;7593256;32;37878;-78
2022/09/15 13:18:20;;;;;;;3.90;1.20;;;;;;;26.63;40.57;98582.41;7606412;32;37062;-78
2022/09/15 13:22:42;;;;;;;3.37;0.95;;;;;;;26.16;40.73;98580.66;7605984;32;38871;-78
2022/09/15 13:27:00;;;;;;;4.60;1.25;;;;;;;26.10;41.39;98561.97;7593341;32;40819;-77
2022/09/15 13:31:25;;;;;;;4.10;1.30;;;;;;;25.72;41.82;98551.31;7605662;32;37959;-76
2022/09/15 13:35:51;;;;;;;1.45;1.10;;;;;;;26.29;41.64;98552.28;7593041;32;37226;-77
2022/09/15 13:40:44;;;;;;;2.80;1.10;;;;;;;26.13;41.85;98563.91;7593225;32;40067;-78
2022/09/15 13:45:28;;;;;;;3.28;1.30;;;;;;;26.08;42.12;98575.50;7605978;32;39951;-76
2022/09/15 13:49:48;;;;;;;2.55;1.23;;;;;;;25.25;44.03;98573.75;7605724;32;38706;-75
2022/09/15 13:54:15;;;;;;;2.90;1.30;;;;;;;25.53;44.29;98583.25;7605563;32;37391;-75
2022/09/15 13:58:31;;;;;;;3.05;1.20;;;;;;;25.23;44.90;98578.09;7593072;32;39532;-77
2022/09/15 14:03:17;;;;;;;2.65;1.05;;;;;;;25.12;44.79;98586.47;7594064;32;41249;-77
2022/09/15 14:07:33;;;;;;;3.28;1.30;;;;;;;24.82;46.17;98609.16;7592956;32;38655;-77
2022/09/15 14:11:51;;;;;;;3.30;1.30;;;;;;;24.81;47.91;98608.34;7591410;32;36983;-77
2022/09/15 14:16:32;;;;;;;3.53;1.45;;;;;;;24.32;49.65;98610.62;7592064;32;39636;-76
2022/09/15 14:21:03;;;;;;;2.80;1.33;;;;;;;24.17;51.50;98608.97;7593917;32;40674;-77
2022/09/15 14:25:20;;;;;;;1.95;1.48;;;;;;;24.17;54.00;98576.34;7605096;32;38043;-77
2022/09/15 14:29:41;;;;;;;3.30;1.60;;;;;;;23.98;54.13;98580.28;7605615;32;37182;-77
2022/09/15 14:33:58;;;;;;;3.00;1.42;;;;;;;24.11;52.86;98577.13;7605068;32;40126;-77
2022/09/15 14:38:22;;;;;;;3.00;1.40;;;;;;;23.86;56.63;98583.41;7603970;32;40017;-77
2022/09/15 14:42:40;;;;;;;2.83;1.55;;;;;;;24.18;52.86;98583.53;7605470;32;37699;-77
2022/09/15 14:46:56;;;;;;;2.10;1.40;;;;;;;23.91;53.74;98585.81;7605094;32;36854;-77
2022/09/15 14:51:24;;;;;;;2.53;1.73;;;;;;;23.74;54.93;98592.06;7605234;32;39174;-77
2022/09/15 14:56:07;;;;;;;4.22;1.75;;;;;;;23.31;57.28;98597.34;7604613;32;39994;-77
2022/09/15 15:00:27;;;;;;;6.75;1.83;;;;;;;23.33;59.34;98600.53;7604849;32;37997;-77
2022/09/15 15:04:49;;;;;;;5.32;1.90;;;;;;;23.08;60.40;98594.78;7604774;32;38113;-76
2022/09/15 15:09:26;;;;;;;5.55;2.00;;;;;;;22.97;61.71;98570.47;7604697;32;40054;-77
2022/09/15 15:13:44;;;;;;;4.75;1.80;;;;;;;23.00;61.88;98558.56;7604876;32;40745;-77
2022/09/15 15:18:03;;;;;;;5.87;2.00;;;;;;;22.95;61.55;98574.81;7604026;32;38692;-77
2022/09/15 15:22:20;;;;;;;6.37;2.17;;;;;;;22.81;61.45;98581.06;7604318;32;37884;-76
2022/09/15 15:26:39;;;;;;;7.30;2.05;;;;;;;22.66;62.78;98567.03;7607205;32;40019;-78
2022/09/15 15:31:06;;;;;;;10.98;2.65;;;;;;;22.49;63.29;98570.41;7607788;32;40940;-77
2022/09/15 15:35:23;;;;;;;7.07;2.20;;;;;;;22.46;63.50;98562.88;7594139;32;37844;-76
2022/09/15 15:39:39;;;;;;;3.28;1.80;;;;;;;22.45;64.15;98537.06;7607245;32;37031;-76
2022/09/15 15:44:06;;;;;;;7.07;2.25;;;;;;;22.63;63.29;98558.69;7607480;32;39342;-77
2022/09/15 15:48:24;;;;;;;7.32;2.15;;;;;;;22.73;63.04;98549.62;7606145;32;39825;-77
2022/09/15 15:52:42;;;;;;;5.28;2.05;;;;;;;23.01;62.46;98551.06;7606845;32;37830;-76
2022/09/15 15:57:19;;;;;;;3.67;1.98;;;;;;;23.04;63.55;98555.81;7606828;32;37817;-77
2022/09/15 16:01:36;;;;;;;5.03;1.98;;;;;;;22.99;63.29;98565.34;7607023;32;40037;-77
2022/09/15 16:05:56;;;;;;;4.25;1.70;;;;;;;22.80;62.92;98574.69;7606895;32;40157;-77
2022/09/15 16:10:18;;;;;;;3.60;2.00;;;;;;;23.50;60.99;98579.59;7593961;32;38670;-76
2022/09/15 16:14:34;;;;;;;3.47;1.77;;;;;;;23.39;61.20;98577.56;7607072;32;37765;-78
2022/09/15 16:18:51;;;;;;;6.72;1.92;;;;;;;23.47;60.51;98570.03;7606692;32;39266;-78
2022/09/15 16:23:11;;;;;;;5.05;1.70;;;;;;;23.86;59.42;98566.69;7593537;32;40074;-78
2022/09/15 16:27:29;;;;;;;3.67;1.77;;;;;;;23.75;59.68;98549.94;7606700;32;37897;-78
2022/09/15 16:31:45;;;;;;;5.45;1.80;;;;;;;23.51;59.80;98543.06;7593577;32;37172;-78
2022/09/15 16:36:07;;;;;;;3.30;1.90;;;;;;;23.42;59.80;98542.59;7592956;32;39208;-78
2022/09/15 16:40:23;;;;;;;5.63;2.27;;;;;;;23.13;60.84;98536.88;7606680;32;39993;-78
2022/09/15 16:44:39;;;;;;;5.70;2.10;;;;;;;22.90;61.67;98547.38;7606614;32;38768;-78
2022/09/15 16:48:56;;;;;;;6.97;1.90;;;;;;;22.67;62.07;98553.94;7606451;32;37798;-77
2022/09/15 16:53:13;;;;;;;8.73;2.25;;;;;;;22.88;60.61;98554.09;7593317;32;39374;-76
2022/09/15 16:57:29;;;;;;;4.57;2.00;;;;;;;22.47;61.98;98570.00;7593119;32;40974;-77
2022/09/15 17:01:45;;;;;;;5.60;2.17;;;;;;;22.41;61.83;98577.91;7606475;32;38756;-76
2022/09/15 17:06:02;;;;;;;7.45;2.12;;;;;;;22.30;62.25;98574.19;7606550;32;37129;-77
2022/09/15 17:10:18;;;;;;;4.82;2.17;;;;;;;22.23;62.93;98576.88;7606067;32;40162;-77
2022/09/15 17:14:34;;;;;;;2.85;2.12;;;;;;;22.21;62.96;98582.00;7606374;32;40795;-78
2022/09/15 17:18:51;;;;;;;7.47;2.20;;;;;;;22.34;62.67;98566.72;7605859;32;37971;-78
2022/09/15 17:23:24;;;;;;;9.10;2.40;;;;;;;22.11;63.86;98550.97;7606484;32;37132;-76
2022/09/15 17:27:41;;;;;;;;;;;;;;;21.99;64.11;98553.19;7606464;32;38045;-77
2022/09/15 17:31:59;;;;;;;6.25;2.17;;;;;;;22.06;63.79;98544.94;7606226;32;38883;-77
2022/09/15 17:36:17;;;;;;;3.65;1.98;;;;;;;22.00;63.19;98544.50;7606138;32;38822;-78
2022/09/15 17:40:34;;;;;;;4.47;1.87;;;;;;;21.78;63.86;98543.44;7605647;32;37021;-79
2022/09/15 17:44:50;;;;;;;6.62;2.12;;;;;;;21.89;63.02;98538.03;7606123;32;40048;-76
2022/09/15 17:49:07;;;;;;;6.18;2.12;;;;;;;21.69;63.51;98552.03;7603879;32;39965;-77
2022/09/15 17:53:27;;;;;;;3.33;1.90;;;;;;;21.76;63.16;98543.03;7606052;32;37941;-77
2022/09/15 17:57:43;;;;;;;3.97;2.15;;;;;;;21.75;62.83;98556.09;7606177;32;37390;-77
2022/09/15 18:01:59;;;;;;;3.95;1.90;;;;;;;21.61;63.20;98549.56;7606104;32;40150;-77
2022/09/15 18:08:59;;;;;;;5.45;2.00;;;;;;;21.72;62.91;98542.97;7830378;31;344323;-78
2022/09/15 18:13:19;;;;;;;6.15;2.05;;;;;;;21.59;62.76;98547.16;7812301;32;40610;-78
2022/09/15 18:17:37;;;;;;;7.62;2.47;;;;;;;21.38;63.47;98565.06;7812513;32;37687;-77
2022/09/15 18:21:53;;;;;;;5.62;2.40;;;;;;;21.14;64.42;98549.66;7812594;32;36937;-77
2022/09/15 18:26:09;;;;;;;2.80;1.95;;;;;;;21.32;63.81;98555.50;7799918;32;39834;-78
2022/09/15 18:30:29;;;;;;;3.85;1.85;;;;;;;21.21;64.05;98565.59;7806589;32;39917;-78
2022/09/15 18:34:46;;;;;;;2.20;1.75;;;;;;;21.38;63.44;98565.06;7804384;32;37938;-75
2022/09/15 18:39:04;;;;;;;5.80;2.15;;;;;;;21.32;63.51;98566.56;7808516;32;36893;-75
2022/09/15 18:43:21;;;;;;;3.33;2.10;;;;;;;21.10;64.18;98571.00;7784922;32;39711;-75
2022/09/15 18:47:37;;;;;;;5.20;2.30;;;;;;;21.06;64.13;98569.31;7785042;32;40269;-78
2022/09/15 18:51:53;;;;;;;5.60;2.37;;;;;;;21.04;64.32;98560.59;7784832;32;37879;-77
2022/09/15 18:56:14;;;;;;;4.12;2.15;;;;;;;21.06;64.29;98561.00;7780401;32;36891;-77
2022/09/15 19:00:30;;;;;;;4.90;2.58;;;;;;;21.08;64.42;98564.22;7807936;32;39244;-77
2022/09/15 19:04:46;;;;;;;10.15;2.70;;;;;;;21.10;64.47;98565.44;7797897;32;39965;-77
2022/09/15 19:09:02;;;;;;;6.00;2.67;;;;;;;20.96;65.33;98571.56;7792763;32;39485;-77
2022/09/15 19:13:18;;;;;;;4.97;2.40;;;;;;;20.92;65.68;98562.41;7784807;32;36962;-78
2022/09/15 19:17:34;;;;;;;4.22;2.72;;;;;;;20.89;65.82;98596.38;7786986;32;39100;-78
2022/09/15 19:21:50;;;;;;;7.93;4.25;;;;;;;20.96;65.81;98599.25;7777273;32;40585;-78
2022/09/15 19:26:15;;;;;;;9.20;4.20;;;;;;;20.92;65.93;98614.22;7787745;32;37558;-78
2022/09/15 19:30:33;;;;;;;14.65;3.60;;;;;;;20.89;66.22;98613.00;7780225;32;36378;-78
2022/09/15 19:34:49;;;;;;;6.10;2.45;;;;;;;20.96;65.66;98638.06;7776913;32;39140;-79
2022/09/15 19:39:05;;;;;;;4.62;2.25;;;;;;;20.85;65.70;98647.34;7765868;32;40704;-79
2022/09/15 19:43:21;;;;;;;4.95;2.55;;;;;;;20.93;65.93;98633.25;7752042;32;37991;-78
2022/09/15 19:47:38;;;;;;;3.42;2.20;;;;;;;20.72;66.33;98630.91;7765737;32;36910;-79
2022/09/15 19:51:54;;;;;;;6.05;2.83;;;;;;;21.07;65.28;98637.44;7752628;32;39002;-80
2022/09/15 19:56:21;;;;;;;15.40;6.35;;;;;;;20.90;66.02;98639.50;7765277;32;39692;-83
2022/09/15 20:00:37;;;;;;;12.98;6.28;;;;;;;20.83;66.78;98644.94;7765800;32;37713;-84
2022/09/15 20:04:53;;;;;;;8.70;4.03;;;;;;;20.86;67.25;98644.19;7771529;32;37015;-83
2022/09/15 20:09:10;;;;;;;8.15;3.12;;;;;;;20.73;67.36;98649.12;7778078;32;39875;-82
2022/09/15 20:13:26;;;;;;;11.90;3.30;;;;;;;20.87;66.98;98667.97;7760016;32;39969;-84
2022/09/15 20:17:42;;;;;;;6.62;3.10;;;;;;;20.50;68.71;98660.13;7775622;32;37447;-82
2022/09/15 20:21:58;;;;;;;6.57;3.30;;;;;;;20.75;67.85;98659.84;7778976;32;36959;-82
2022/09/15 20:26:15;;;;;;;7.60;4.22;;;;;;;20.96;67.15;98670.50;7775363;32;39221;-81
2022/09/15 20:30:31;;;;;;;7.97;3.67;;;;;;;20.69;68.69;98683.44;7775151;32;39984;-83
2022/09/15 20:34:49;;;;;;;12.05;4.57;;;;;;;20.61;69.18;98688.81;7775642;32;37973;-83